sensor_id;sensor_type;location;lat;lon;timestamp;pressure;altitude;pressure_sealevel;temperature;humidity
3142;BME280;1581;51.568;6.998;2022-12-26T00:01:42;100278.59;;;11.66;100.00
3142;BME280;1581;51.568;6.998;2022-12-26T00:04:12;100288.44;;;11.65;100.00
3142;BME280;1581;51.568;6.998;2022-12-26T00:06:39;100289.69;;;11.56;100.00
3142;BME280;1581;51.568;6.998;2022-12-26T00:09:07;100291.53;;;11.69;100.00
3142;BME280;1581;51.568;6.998;2022-12-26T00:11:35;100300.97;;;11.65;100.00
3142;BME280;1581;51.568;6.998;2022-12-26T00:14:07;100297.47;;;11.77;100.00
3142;BME280;1581;51.568;6.998;2022-12-26T00:16:36;100305.22;;;11.98;100.00
3142;BME280;1581;51.568;6.998;2022-12-26T00:19:03;100295.38;;;11.99;100.00
3142;BME280;1581;51.568;6.998;2022-12-26T00:21:32;100295.44;;;11.66;100.00
3142;BME280;1581;51.568;6.998;2022-12-26T00:24:00;100301.59;;;11.67;100.00
3142;BME280;1581;51.568;6.998;2022-12-26T00:26:30;100297.66;;;11.76;100.00
3142;BME280;1581;51.568;6.998;2022-12-26T00:28:58;100309.75;;;11.46;100.00
3142;BME280;1581;51.568;6.998;2022-12-26T00:31:28;100301.19;;;11.83;100.00
3142;BME280;1581;51.568;6.998;2022-12-26T00:33:57;100304.03;;;11.81;100.00
3142;BME280;1581;51.568;6.998;2022-12-26T00:36:27;100302.38;;;11.87;100.00
3142;BME280;1581;51.568;6.998;2022-12-26T00:38:59;100296.63;;;11.90;100.00
3142;BME280;1581;51.568;6.998;2022-12-26T00:41:28;100290.69;;;11.68;100.00
3142;BME280;1581;51.568;6.998;2022-12-26T00:43:56;100293.75;;;11.98;100.00
3142;BME280;1581;51.568;6.998;2022-12-26T00:46:25;100292.16;;;11.77;100.00
3142;BME280;1581;51.568;6.998;2022-12-26T00:48:53;100294.19;;;11.75;100.00
3142;BME280;1581;51.568;6.998;2022-12-26T00:51:21;100286.59;;;11.85;100.00
3142;BME280;1581;51.568;6.998;2022-12-26T00:53:49;100284.31;;;12.02;100.00
3142;BME280;1581;51.568;6.998;2022-12-26T00:56:18;100298.25;;;12.03;100.00
3142;BME280;1581;51.568;6.998;2022-12-26T00:58:45;100310.41;;;11.80;100.00
3142;BME280;1581;51.568;6.998;2022-12-26T01:01:17;100303.41;;;11.99;100.00
3142;BME280;1581;51.568;6.998;2022-12-26T01:03:47;100314.31;;;11.78;100.00
3142;BME280;1581;51.568;6.998;2022-12-26T01:06:15;100314.91;;;11.60;100.00
3142;BME280;1581;51.568;6.998;2022-12-26T01:08:43;100316.97;;;11.58;100.00
3142;BME280;1581;51.568;6.998;2022-12-26T01:11:13;100324.16;;;11.84;100.00
3142;BME280;1581;51.568;6.998;2022-12-26T01:13:42;100323.13;;;11.78;100.00
3142;BME280;1581;51.568;6.998;2022-12-26T01:16:10;100320.44;;;11.85;100.00
3142;BME280;1581;51.568;6.998;2022-12-26T01:18:38;100327.03;;;11.89;100.00
3142;BME280;1581;51.568;6.998;2022-12-26T01:21:07;100343.88;;;11.63;100.00
3142;BME280;1581;51.568;6.998;2022-12-26T01:23:36;100338.16;;;11.73;100.00
3142;BME280;1581;51.568;6.998;2022-12-26T01:26:04;100324.56;;;11.68;100.00
3142;BME280;1581;51.568;6.998;2022-12-26T01:28:32;100336.09;;;11.62;100.00
3142;BME280;1581;51.568;6.998;2022-12-26T01:31:05;100346.75;;;11.55;100.00
3142;BME280;1581;51.568;6.998;2022-12-26T01:33:32;100329.91;;;11.74;100.00
3142;BME280;1581;51.568;6.998;2022-12-26T01:36:01;100337.31;;;11.66;100.00
3142;BME280;1581;51.568;6.998;2022-12-26T01:38:28;100354.97;;;11.93;100.00
3142;BME280;1581;51.568;6.998;2022-12-26T01:40:56;100364.19;;;11.64;100.00
3142;BME280;1581;51.568;6.998;2022-12-26T01:43:56;100360.50;;;11.85;100.00
3142;BME280;1581;51.568;6.998;2022-12-26T01:46:31;100364.00;;;11.66;100.00
3142;BME280;1581;51.568;6.998;2022-12-26T01:49:05;100363.81;;;11.67;100.00
3142;BME280;1581;51.568;6.998;2022-12-26T01:51:38;100369.53;;;11.58;100.00
3142;BME280;1581;51.568;6.998;2022-12-26T01:54:10;100362.28;;;11.39;100.00
3142;BME280;1581;51.568;6.998;2022-12-26T01:56:41;100355.16;;;11.59;100.00
3142;BME280;1581;51.568;6.998;2022-12-26T01:59:13;100347.38;;;11.96;100.00
3142;BME280;1581;51.568;6.998;2022-12-26T02:01:43;100351.88;;;11.57;100.00
3142;BME280;1581;51.568;6.998;2022-12-26T02:04:14;100350.03;;;11.57;100.00
3142;BME280;1581;51.568;6.998;2022-12-26T02:07:00;100340.75;;;11.27;100.00
3142;BME280;1581;51.568;6.998;2022-12-26T02:09:29;100343.97;;;11.23;100.00
3142;BME280;1581;51.568;6.998;2022-12-26T02:12:02;100349.78;;;11.46;100.00
3142;BME280;1581;51.568;6.998;2022-12-26T02:14:31;100352.28;;;11.54;100.00
3142;BME280;1581;51.568;6.998;2022-12-26T02:17:01;100365.41;;;11.68;100.00
3142;BME280;1581;51.568;6.998;2022-12-26T02:19:34;100373.00;;;11.65;100.00
3142;BME280;1581;51.568;6.998;2022-12-26T02:22:44;100373.34;;;11.29;100.00
3142;BME280;1581;51.568;6.998;2022-12-26T02:25:42;100363.69;;;11.28;100.00
3142;BME280;1581;51.568;6.998;2022-12-26T02:29:01;100365.53;;;11.21;100.00
3142;BME280;1581;51.568;6.998;2022-12-26T02:31:43;100376.38;;;11.13;100.00
3142;BME280;1581;51.568;6.998;2022-12-26T02:34:16;100376.25;;;11.41;100.00
3142;BME280;1581;51.568;6.998;2022-12-26T02:37:01;100379.28;;;11.25;100.00
3142;BME280;1581;51.568;6.998;2022-12-26T02:39:58;100371.91;;;11.27;100.00
3142;BME280;1581;51.568;6.998;2022-12-26T02:42:38;100376.00;;;11.23;100.00
3142;BME280;1581;51.568;6.998;2022-12-26T02:45:16;100378.59;;;11.04;100.00
3142;BME280;1581;51.568;6.998;2022-12-26T02:48:11;100393.59;;;11.05;100.00
3142;BME280;1581;51.568;6.998;2022-12-26T02:50:51;100391.69;;;10.99;100.00
3142;BME280;1581;51.568;6.998;2022-12-26T02:53:50;100382.53;;;11.08;100.00
3142;BME280;1581;51.568;6.998;2022-12-26T02:56:45;100386.22;;;11.13;100.00
3142;BME280;1581;51.568;6.998;2022-12-26T02:59:44;100385.44;;;11.19;100.00
3142;BME280;1581;51.568;6.998;2022-12-26T03:02:36;100391.00;;;11.30;100.00
3142;BME280;1581;51.568;6.998;2022-12-26T03:05:29;100388.09;;;11.19;100.00
3142;BME280;1581;51.568;6.998;2022-12-26T03:08:21;100384.16;;;11.02;100.00
3142;BME280;1581;51.568;6.998;2022-12-26T03:11:08;100399.09;;;11.03;100.00
3142;BME280;1581;51.568;6.998;2022-12-26T03:13:55;100400.72;;;10.91;100.00
3142;BME280;1581;51.568;6.998;2022-12-26T03:16:26;100414.47;;;10.95;100.00
3142;BME280;1581;51.568;6.998;2022-12-26T03:19:12;100409.00;;;11.09;100.00
3142;BME280;1581;51.568;6.998;2022-12-26T03:21:44;100399.56;;;11.07;100.00
3142;BME280;1581;51.568;6.998;2022-12-26T03:24:14;100400.97;;;11.03;100.00
3142;BME280;1581;51.568;6.998;2022-12-26T03:26:49;100401.75;;;11.03;100.00
3142;BME280;1581;51.568;6.998;2022-12-26T03:29:20;100402.44;;;11.18;100.00
3142;BME280;1581;51.568;6.998;2022-12-26T03:32:09;100394.00;;;11.08;100.00
3142;BME280;1581;51.568;6.998;2022-12-26T03:34:40;100392.44;;;11.26;100.00
3142;BME280;1581;51.568;6.998;2022-12-26T03:37:34;100398.38;;;11.22;100.00
3142;BME280;1581;51.568;6.998;2022-12-26T03:40:20;100406.75;;;11.19;100.00
3142;BME280;1581;51.568;6.998;2022-12-26T03:43:16;100411.50;;;11.23;100.00
3142;BME280;1581;51.568;6.998;2022-12-26T03:46:14;100415.22;;;11.35;100.00
3142;BME280;1581;51.568;6.998;2022-12-26T03:49:07;100416.72;;;11.51;100.00
3142;BME280;1581;51.568;6.998;2022-12-26T03:51:58;100408.59;;;11.12;100.00
3142;BME280;1581;51.568;6.998;2022-12-26T03:54:53;100410.06;;;11.34;100.00
3142;BME280;1581;51.568;6.998;2022-12-26T03:57:47;100408.16;;;11.09;100.00
3142;BME280;1581;51.568;6.998;2022-12-26T04:00:34;100401.53;;;10.92;100.00
3142;BME280;1581;51.568;6.998;2022-12-26T04:03:21;100413.56;;;11.28;100.00
3142;BME280;1581;51.568;6.998;2022-12-26T04:06:15;100406.53;;;11.08;100.00
3142;BME280;1581;51.568;6.998;2022-12-26T04:09:15;100415.06;;;10.90;100.00
3142;BME280;1581;51.568;6.998;2022-12-26T04:12:03;100409.16;;;11.01;100.00
3142;BME280;1581;51.568;6.998;2022-12-26T04:14:54;100408.81;;;11.17;100.00
3142;BME280;1581;51.568;6.998;2022-12-26T04:17:46;100418.03;;;11.14;100.00
3142;BME280;1581;51.568;6.998;2022-12-26T04:20:39;100413.50;;;11.15;100.00
3142;BME280;1581;51.568;6.998;2022-12-26T04:23:13;100417.91;;;10.89;100.00
3142;BME280;1581;51.568;6.998;2022-12-26T04:26:05;100417.69;;;10.84;100.00
3142;BME280;1581;51.568;6.998;2022-12-26T04:28:53;100415.91;;;10.97;100.00
3142;BME280;1581;51.568;6.998;2022-12-26T04:31:45;100430.53;;;11.08;100.00
3142;BME280;1581;51.568;6.998;2022-12-26T04:34:38;100440.34;;;11.07;100.00
3142;BME280;1581;51.568;6.998;2022-12-26T04:37:25;100438.47;;;10.95;100.00
3142;BME280;1581;51.568;6.998;2022-12-26T04:40:18;100446.25;;;10.96;100.00
3142;BME280;1581;51.568;6.998;2022-12-26T04:43:05;100448.84;;;11.23;100.00
3142;BME280;1581;51.568;6.998;2022-12-26T04:45:54;100442.53;;;11.37;100.00
3142;BME280;1581;51.568;6.998;2022-12-26T04:48:23;100440.94;;;11.03;100.00
3142;BME280;1581;51.568;6.998;2022-12-26T04:51:08;100434.16;;;10.94;100.00
3142;BME280;1581;51.568;6.998;2022-12-26T04:53:35;100442.16;;;10.94;100.00
3142;BME280;1581;51.568;6.998;2022-12-26T04:56:04;100442.56;;;10.97;100.00
3142;BME280;1581;51.568;6.998;2022-12-26T04:58:31;100443.88;;;11.14;100.00
3142;BME280;1581;51.568;6.998;2022-12-26T05:01:00;100443.47;;;11.17;100.00
3142;BME280;1581;51.568;6.998;2022-12-26T05:03:42;100442.81;;;11.09;100.00
3142;BME280;1581;51.568;6.998;2022-12-26T05:06:26;100434.44;;;11.18;100.00
3142;BME280;1581;51.568;6.998;2022-12-26T05:09:15;100438.06;;;10.98;100.00
3142;BME280;1581;51.568;6.998;2022-12-26T05:12:02;100433.59;;;11.05;100.00
3142;BME280;1581;51.568;6.998;2022-12-26T05:15:00;100438.78;;;10.79;100.00
3142;BME280;1581;51.568;6.998;2022-12-26T05:17:55;100443.69;;;11.15;100.00
3142;BME280;1581;51.568;6.998;2022-12-26T05:20:40;100439.88;;;10.91;100.00
3142;BME280;1581;51.568;6.998;2022-12-26T05:23:27;100445.78;;;10.86;100.00
3142;BME280;1581;51.568;6.998;2022-12-26T05:26:14;100446.88;;;10.64;100.00
3142;BME280;1581;51.568;6.998;2022-12-26T05:29:00;100436.09;;;10.79;100.00
3142;BME280;1581;51.568;6.998;2022-12-26T05:31:29;100454.00;;;10.85;100.00
3142;BME280;1581;51.568;6.998;2022-12-26T05:33:58;100454.97;;;10.77;100.00
3142;BME280;1581;51.568;6.998;2022-12-26T05:36:35;100468.69;;;10.74;100.00
3142;BME280;1581;51.568;6.998;2022-12-26T05:39:04;100472.91;;;10.96;100.00
3142;BME280;1581;51.568;6.998;2022-12-26T05:41:32;100457.22;;;11.20;100.00
3142;BME280;1581;51.568;6.998;2022-12-26T05:43:59;100457.75;;;11.03;100.00
3142;BME280;1581;51.568;6.998;2022-12-26T05:46:27;100468.84;;;10.66;100.00
3142;BME280;1581;51.568;6.998;2022-12-26T05:48:54;100463.22;;;10.82;100.00
3142;BME280;1581;51.568;6.998;2022-12-26T05:51:23;100461.78;;;10.86;100.00
3142;BME280;1581;51.568;6.998;2022-12-26T05:53:51;100463.31;;;11.02;100.00
3142;BME280;1581;51.568;6.998;2022-12-26T05:56:19;100459.72;;;10.82;100.00
3142;BME280;1581;51.568;6.998;2022-12-26T05:58:53;100456.19;;;10.75;100.00
3142;BME280;1581;51.568;6.998;2022-12-26T06:01:21;100465.16;;;10.67;100.00
3142;BME280;1581;51.568;6.998;2022-12-26T06:03:51;100464.47;;;10.52;100.00
3142;BME280;1581;51.568;6.998;2022-12-26T06:06:20;100468.53;;;10.82;100.00
3142;BME280;1581;51.568;6.998;2022-12-26T06:08:50;100448.84;;;10.83;100.00
3142;BME280;1581;51.568;6.998;2022-12-26T06:11:19;100443.28;;;10.78;100.00
3142;BME280;1581;51.568;6.998;2022-12-26T06:13:47;100440.00;;;10.76;100.00
3142;BME280;1581;51.568;6.998;2022-12-26T06:16:16;100437.13;;;10.71;100.00
3142;BME280;1581;51.568;6.998;2022-12-26T06:18:45;100433.09;;;10.88;100.00
3142;BME280;1581;51.568;6.998;2022-12-26T06:21:16;100419.09;;;10.80;100.00
3142;BME280;1581;51.568;6.998;2022-12-26T06:23:44;100425.91;;;10.82;100.00
3142;BME280;1581;51.568;6.998;2022-12-26T06:26:14;100426.50;;;10.78;100.00
3142;BME280;1581;51.568;6.998;2022-12-26T06:28:42;100422.66;;;10.53;100.00
3142;BME280;1581;51.568;6.998;2022-12-26T06:31:14;100428.72;;;10.74;100.00
3142;BME280;1581;51.568;6.998;2022-12-26T06:33:46;100425.81;;;10.69;100.00
3142;BME280;1581;51.568;6.998;2022-12-26T06:36:16;100427.91;;;10.74;100.00
3142;BME280;1581;51.568;6.998;2022-12-26T06:38:44;100433.94;;;10.55;100.00
3142;BME280;1581;51.568;6.998;2022-12-26T06:41:15;100437.66;;;10.60;100.00
3142;BME280;1581;51.568;6.998;2022-12-26T06:43:44;100438.25;;;10.56;100.00
3142;BME280;1581;51.568;6.998;2022-12-26T06:46:14;100434.03;;;10.74;100.00
3142;BME280;1581;51.568;6.998;2022-12-26T06:48:42;100444.84;;;10.66;100.00
3142;BME280;1581;51.568;6.998;2022-12-26T06:51:12;100453.00;;;10.58;100.00
3142;BME280;1581;51.568;6.998;2022-12-26T06:53:41;100451.78;;;10.61;100.00
3142;BME280;1581;51.568;6.998;2022-12-26T06:56:10;100466.22;;;10.73;100.00
3142;BME280;1581;51.568;6.998;2022-12-26T06:58:40;100481.16;;;10.67;100.00
3142;BME280;1581;51.568;6.998;2022-12-26T07:01:10;100480.22;;;10.81;100.00
3142;BME280;1581;51.568;6.998;2022-12-26T07:03:38;100479.50;;;10.66;100.00
3142;BME280;1581;51.568;6.998;2022-12-26T07:06:09;100478.53;;;10.74;100.00
3142;BME280;1581;51.568;6.998;2022-12-26T07:08:37;100463.97;;;10.76;100.00
3142;BME280;1581;51.568;6.998;2022-12-26T07:11:12;100457.44;;;10.79;100.00
3142;BME280;1581;51.568;6.998;2022-12-26T07:13:42;100478.25;;;10.62;100.00
3142;BME280;1581;51.568;6.998;2022-12-26T07:16:10;100476.84;;;10.66;100.00
3142;BME280;1581;51.568;6.998;2022-12-26T07:18:37;100496.66;;;10.85;100.00
3142;BME280;1581;51.568;6.998;2022-12-26T07:21:06;100496.81;;;10.77;100.00
3142;BME280;1581;51.568;6.998;2022-12-26T07:23:34;100502.84;;;10.64;100.00
3142;BME280;1581;51.568;6.998;2022-12-26T07:26:02;100497.63;;;10.77;100.00
3142;BME280;1581;51.568;6.998;2022-12-26T07:28:29;100493.84;;;10.99;100.00
3142;BME280;1581;51.568;6.998;2022-12-26T07:30:58;100497.19;;;11.08;100.00
3142;BME280;1581;51.568;6.998;2022-12-26T07:33:26;100487.94;;;11.04;100.00
3142;BME280;1581;51.568;6.998;2022-12-26T07:35:58;100494.13;;;10.77;100.00
3142;BME280;1581;51.568;6.998;2022-12-26T07:38:25;100496.53;;;10.99;100.00
3142;BME280;1581;51.568;6.998;2022-12-26T07:40:54;100502.53;;;11.14;100.00
3142;BME280;1581;51.568;6.998;2022-12-26T07:43:22;100501.19;;;10.91;100.00
3142;BME280;1581;51.568;6.998;2022-12-26T07:45:50;100499.59;;;11.03;100.00
3142;BME280;1581;51.568;6.998;2022-12-26T07:48:19;100510.22;;;10.96;100.00
3142;BME280;1581;51.568;6.998;2022-12-26T07:50:46;100513.81;;;11.16;100.00
3142;BME280;1581;51.568;6.998;2022-12-26T07:53:15;100510.44;;;10.95;100.00
3142;BME280;1581;51.568;6.998;2022-12-26T07:55:42;100520.50;;;10.99;100.00
3142;BME280;1581;51.568;6.998;2022-12-26T07:58:10;100522.06;;;11.21;100.00
3142;BME280;1581;51.568;6.998;2022-12-26T08:00:37;100519.84;;;11.24;100.00
3142;BME280;1581;51.568;6.998;2022-12-26T08:03:04;100520.56;;;11.06;100.00
3142;BME280;1581;51.568;6.998;2022-12-26T08:05:33;100520.34;;;11.07;100.00
3142;BME280;1581;51.568;6.998;2022-12-26T08:08:01;100502.47;;;11.01;100.00
3142;BME280;1581;51.568;6.998;2022-12-26T08:10:29;100513.75;;;11.03;100.00
3142;BME280;1581;51.568;6.998;2022-12-26T08:12:56;100528.84;;;11.23;100.00
3142;BME280;1581;51.568;6.998;2022-12-26T08:15:24;100542.91;;;11.05;100.00
3142;BME280;1581;51.568;6.998;2022-12-26T08:17:51;100540.78;;;11.34;100.00
3142;BME280;1581;51.568;6.998;2022-12-26T08:20:19;100556.38;;;11.30;100.00
3142;BME280;1581;51.568;6.998;2022-12-26T08:22:48;100535.00;;;11.17;100.00
3142;BME280;1581;51.568;6.998;2022-12-26T08:25:16;100538.69;;;11.23;100.00
3142;BME280;1581;51.568;6.998;2022-12-26T08:27:44;100527.25;;;11.29;100.00
3142;BME280;1581;51.568;6.998;2022-12-26T08:30:12;100517.19;;;11.31;100.00
3142;BME280;1581;51.568;6.998;2022-12-26T08:32:39;100532.97;;;11.26;100.00
3142;BME280;1581;51.568;6.998;2022-12-26T08:35:08;100528.72;;;11.38;100.00
3142;BME280;1581;51.568;6.998;2022-12-26T08:37:35;100528.00;;;11.23;100.00
3142;BME280;1581;51.568;6.998;2022-12-26T08:40:07;100518.63;;;11.33;100.00
3142;BME280;1581;51.568;6.998;2022-12-26T08:42:34;100525.66;;;11.41;100.00
3142;BME280;1581;51.568;6.998;2022-12-26T08:45:02;100525.41;;;11.36;100.00
3142;BME280;1581;51.568;6.998;2022-12-26T08:47:30;100535.44;;;11.34;100.00
3142;BME280;1581;51.568;6.998;2022-12-26T08:49:57;100528.88;;;11.30;100.00
3142;BME280;1581;51.568;6.998;2022-12-26T08:52:25;100529.25;;;11.20;100.00
3142;BME280;1581;51.568;6.998;2022-12-26T08:54:52;100531.72;;;11.22;100.00
3142;BME280;1581;51.568;6.998;2022-12-26T08:57:21;100543.00;;;11.24;100.00
3142;BME280;1581;51.568;6.998;2022-12-26T08:59:49;100547.38;;;11.38;100.00
3142;BME280;1581;51.568;6.998;2022-12-26T09:02:16;100554.53;;;11.31;100.00
3142;BME280;1581;51.568;6.998;2022-12-26T09:04:44;100553.06;;;11.28;100.00
3142;BME280;1581;51.568;6.998;2022-12-26T09:07:11;100543.63;;;11.26;100.00
3142;BME280;1581;51.568;6.998;2022-12-26T09:09:38;100556.84;;;11.40;100.00
3142;BME280;1581;51.568;6.998;2022-12-26T09:12:06;100572.38;;;11.30;100.00
3142;BME280;1581;51.568;6.998;2022-12-26T09:14:35;100549.06;;;11.45;100.00
3142;BME280;1581;51.568;6.998;2022-12-26T09:17:03;100561.34;;;11.80;100.00
3142;BME280;1581;51.568;6.998;2022-12-26T09:19:30;100566.31;;;11.49;100.00
3142;BME280;1581;51.568;6.998;2022-12-26T09:21:58;100563.41;;;11.38;100.00
3142;BME280;1581;51.568;6.998;2022-12-26T09:24:43;100558.47;;;11.41;100.00
3142;BME280;1581;51.568;6.998;2022-12-26T09:27:11;100568.34;;;11.41;100.00
3142;BME280;1581;51.568;6.998;2022-12-26T09:29:39;100564.72;;;11.55;100.00
3142;BME280;1581;51.568;6.998;2022-12-26T09:32:07;100571.72;;;11.56;100.00
3142;BME280;1581;51.568;6.998;2022-12-26T09:34:34;100569.25;;;11.54;100.00
3142;BME280;1581;51.568;6.998;2022-12-26T09:37:02;100567.09;;;11.84;100.00
3142;BME280;1581;51.568;6.998;2022-12-26T09:39:29;100566.88;;;11.79;100.00
3142;BME280;1581;51.568;6.998;2022-12-26T09:42:06;100575.53;;;11.94;100.00
3142;BME280;1581;51.568;6.998;2022-12-26T09:44:47;100584.97;;;11.83;100.00
3142;BME280;1581;51.568;6.998;2022-12-26T09:47:31;100586.34;;;11.66;100.00
3142;BME280;1581;51.568;6.998;2022-12-26T09:50:08;100581.44;;;11.70;100.00
3142;BME280;1581;51.568;6.998;2022-12-26T09:52:42;100588.19;;;11.66;100.00
3142;BME280;1581;51.568;6.998;2022-12-26T09:55:33;100592.31;;;11.75;100.00
3142;BME280;1581;51.568;6.998;2022-12-26T09:58:12;100594.69;;;12.03;100.00
3142;BME280;1581;51.568;6.998;2022-12-26T10:00:51;100594.84;;;11.83;100.00
3142;BME280;1581;51.568;6.998;2022-12-26T10:03:19;100606.16;;;11.91;100.00
3142;BME280;1581;51.568;6.998;2022-12-26T10:06:09;100618.66;;;11.84;100.00
3142;BME280;1581;51.568;6.998;2022-12-26T10:09:12;100606.97;;;11.98;100.00
3142;BME280;1581;51.568;6.998;2022-12-26T10:11:57;100610.41;;;11.73;100.00
3142;BME280;1581;51.568;6.998;2022-12-26T10:14:37;100612.66;;;11.76;100.00
3142;BME280;1581;51.568;6.998;2022-12-26T10:17:17;100614.00;;;12.05;100.00
3142;BME280;1581;51.568;6.998;2022-12-26T10:23:08;100608.78;;;11.85;100.00
3142;BME280;1581;51.568;6.998;2022-12-26T10:25:46;100594.53;;;11.65;100.00
3142;BME280;1581;51.568;6.998;2022-12-26T10:28:27;100600.94;;;11.70;100.00
3142;BME280;1581;51.568;6.998;2022-12-26T10:30:58;100609.31;;;12.14;100.00
3142;BME280;1581;51.568;6.998;2022-12-26T10:33:37;100593.81;;;11.90;100.00
3142;BME280;1581;51.568;6.998;2022-12-26T10:36:26;100599.53;;;11.74;100.00
3142;BME280;1581;51.568;6.998;2022-12-26T10:38:58;100606.06;;;11.65;100.00
3142;BME280;1581;51.568;6.998;2022-12-26T10:41:33;100605.13;;;11.92;100.00
3142;BME280;1581;51.568;6.998;2022-12-26T10:44:01;100612.31;;;11.92;100.00
3142;BME280;1581;51.568;6.998;2022-12-26T10:47:05;100606.22;;;11.64;100.00
3142;BME280;1581;51.568;6.998;2022-12-26T10:49:36;100618.31;;;11.53;100.00
3142;BME280;1581;51.568;6.998;2022-12-26T10:52:04;100614.56;;;11.82;100.00
3142;BME280;1581;51.568;6.998;2022-12-26T10:54:32;100615.72;;;11.66;100.00
3142;BME280;1581;51.568;6.998;2022-12-26T10:57:01;100614.34;;;11.49;100.00
3142;BME280;1581;51.568;6.998;2022-12-26T10:59:40;100600.91;;;11.64;100.00
3142;BME280;1581;51.568;6.998;2022-12-26T11:02:22;100608.31;;;11.68;100.00
3142;BME280;1581;51.568;6.998;2022-12-26T11:05:07;100615.69;;;11.60;100.00
3142;BME280;1581;51.568;6.998;2022-12-26T11:07:37;100592.50;;;11.67;100.00
3142;BME280;1581;51.568;6.998;2022-12-26T11:10:17;100614.56;;;11.88;100.00
3142;BME280;1581;51.568;6.998;2022-12-26T11:12:48;100603.91;;;12.01;100.00
3142;BME280;1581;51.568;6.998;2022-12-26T11:15:22;100601.00;;;11.83;100.00
3142;BME280;1581;51.568;6.998;2022-12-26T11:17:53;100608.63;;;11.93;100.00
3142;BME280;1581;51.568;6.998;2022-12-26T11:20:29;100612.31;;;11.92;100.00
3142;BME280;1581;51.568;6.998;2022-12-26T11:23:23;100613.06;;;11.79;100.00
3142;BME280;1581;51.568;6.998;2022-12-26T11:25:53;100607.50;;;11.68;100.00
3142;BME280;1581;51.568;6.998;2022-12-26T11:28:28;100615.19;;;11.90;100.00
3142;BME280;1581;51.568;6.998;2022-12-26T11:30:57;100608.44;;;11.94;100.00
3142;BME280;1581;51.568;6.998;2022-12-26T11:33:28;100611.06;;;11.88;100.00
3142;BME280;1581;51.568;6.998;2022-12-26T11:36:09;100602.66;;;11.91;100.00
3142;BME280;1581;51.568;6.998;2022-12-26T11:38:51;100601.84;;;11.97;100.00
3142;BME280;1581;51.568;6.998;2022-12-26T11:41:34;100601.25;;;12.01;100.00
3142;BME280;1581;51.568;6.998;2022-12-26T11:44:16;100612.44;;;12.30;100.00
3142;BME280;1581;51.568;6.998;2022-12-26T11:46:50;100614.03;;;12.18;100.00
3142;BME280;1581;51.568;6.998;2022-12-26T11:49:26;100608.28;;;12.28;100.00
3142;BME280;1581;51.568;6.998;2022-12-26T11:51:58;100606.09;;;12.57;100.00
3142;BME280;1581;51.568;6.998;2022-12-26T11:54:47;100603.56;;;12.30;100.00
3142;BME280;1581;51.568;6.998;2022-12-26T11:57:19;100601.16;;;12.54;100.00
3142;BME280;1581;51.568;6.998;2022-12-26T11:59:49;100613.91;;;12.65;100.00
3142;BME280;1581;51.568;6.998;2022-12-26T12:02:25;100608.97;;;12.88;100.00
3142;BME280;1581;51.568;6.998;2022-12-26T12:05:00;100604.06;;;12.72;100.00
3142;BME280;1581;51.568;6.998;2022-12-26T12:08:10;100612.66;;;12.68;100.00
3142;BME280;1581;51.568;6.998;2022-12-26T12:11:07;100623.31;;;12.29;100.00
3142;BME280;1581;51.568;6.998;2022-12-26T12:13:51;100610.16;;;12.27;100.00
3142;BME280;1581;51.568;6.998;2022-12-26T12:16:36;100611.41;;;12.31;100.00
3142;BME280;1581;51.568;6.998;2022-12-26T12:19:26;100611.78;;;12.15;100.00
3142;BME280;1581;51.568;6.998;2022-12-26T12:25:39;100625.06;;;11.90;100.00
3142;BME280;1581;51.568;6.998;2022-12-26T12:31:27;100658.41;;;10.84;100.00
3142;BME280;1581;51.568;6.998;2022-12-26T12:34:06;100655.94;;;10.83;100.00
3142;BME280;1581;51.568;6.998;2022-12-26T12:36:58;100673.38;;;10.43;100.00
3142;BME280;1581;51.568;6.998;2022-12-26T12:39:43;100658.13;;;10.17;100.00
3142;BME280;1581;51.568;6.998;2022-12-26T12:42:38;100668.03;;;10.58;100.00
3142;BME280;1581;51.568;6.998;2022-12-26T12:45:25;100674.53;;;10.76;100.00
3142;BME280;1581;51.568;6.998;2022-12-26T12:48:10;100664.88;;;10.75;100.00
3142;BME280;1581;51.568;6.998;2022-12-26T12:50:47;100665.59;;;10.84;100.00
3142;BME280;1581;51.568;6.998;2022-12-26T12:53:31;100669.47;;;10.60;100.00
3142;BME280;1581;51.568;6.998;2022-12-26T12:56:15;100670.69;;;10.58;100.00
3142;BME280;1581;51.568;6.998;2022-12-26T12:58:52;100671.63;;;10.50;100.00
3142;BME280;1581;51.568;6.998;2022-12-26T13:01:26;100681.28;;;10.51;100.00
3142;BME280;1581;51.568;6.998;2022-12-26T13:04:01;100686.69;;;10.43;100.00
3142;BME280;1581;51.568;6.998;2022-12-26T13:06:41;100697.25;;;10.16;100.00
3142;BME280;1581;51.568;6.998;2022-12-26T13:09:15;100700.84;;;10.09;100.00
3142;BME280;1581;51.568;6.998;2022-12-26T13:11:47;100707.34;;;10.21;100.00
3142;BME280;1581;51.568;6.998;2022-12-26T13:14:21;100705.97;;;9.81;100.00
3142;BME280;1581;51.568;6.998;2022-12-26T13:16:54;100694.88;;;9.92;100.00
3142;BME280;1581;51.568;6.998;2022-12-26T13:19:26;100698.97;;;10.38;100.00
3142;BME280;1581;51.568;6.998;2022-12-26T13:22:01;100699.47;;;10.48;100.00
3142;BME280;1581;51.568;6.998;2022-12-26T13:24:33;100703.19;;;10.53;100.00
3142;BME280;1581;51.568;6.998;2022-12-26T13:27:08;100706.84;;;10.67;100.00
3142;BME280;1581;51.568;6.998;2022-12-26T13:29:40;100730.44;;;10.34;100.00
3142;BME280;1581;51.568;6.998;2022-12-26T13:32:21;100732.25;;;10.48;100.00
3142;BME280;1581;51.568;6.998;2022-12-26T13:34:51;100733.38;;;10.75;100.00
3142;BME280;1581;51.568;6.998;2022-12-26T13:37:55;100724.06;;;10.50;100.00
3142;BME280;1581;51.568;6.998;2022-12-26T13:40:27;100739.72;;;10.38;100.00
3142;BME280;1581;51.568;6.998;2022-12-26T13:43:00;100724.56;;;10.39;100.00
3142;BME280;1581;51.568;6.998;2022-12-26T13:45:53;100752.66;;;10.06;100.00
3142;BME280;1581;51.568;6.998;2022-12-26T13:48:55;100743.91;;;10.12;100.00
3142;BME280;1581;51.568;6.998;2022-12-26T13:51:53;100749.66;;;10.30;100.00
3142;BME280;1581;51.568;6.998;2022-12-26T13:54:23;100750.41;;;10.24;100.00
3142;BME280;1581;51.568;6.998;2022-12-26T13:57:25;100745.19;;;10.16;100.00